Favola — IBFH — position and weather

sailwx.info

Track history (hours):
 
Tides and Currents Weather Stations Pressure Air Temp Water Temp Dewpoint Dewpoint Depression Visibility Wind Speed Wind Dir Waves Ship Positions

Favola

Last reported at 2017-Jan-18 23:28 UTC. Time now 2017-Jan-19 00:20 UTC.
Position N 01°13' E 103°48'.

Length 180 m; draft 7.3 m.

Type: Ship (hazmat cat A). MMSI: 247069800.

Date/timePositionNaut miles runAvg speedWind from/ knotsBaromVisibWave heightAir tempDewpointWater temp
2017-Jan-18 23:28N 01°13' E 103°48'0 0.0
2017-Jan-18 21:28N 01°13' E 103°48'0 0.0
2017-Jan-18 19:33N 01°13' E 103°48'0 0.1
2017-Jan-18 18:33N 01°13' E 103°48'0 0.0
2017-Jan-18 17:33N 01°13' E 103°48'0 0.0
2017-Jan-18 16:24N 01°13' E 103°48'0 0.0
2017-Jan-18 15:33N 01°13' E 103°48'0 0.1
2017-Jan-18 14:33N 01°13' E 103°48'0 0.0
2017-Jan-18 13:21N 01°13' E 103°48'0 0.0
2017-Jan-18 12:33N 01°13' E 103°48'0 0.0
2017-Jan-18 11:15N 01°13' E 103°48'0 0.1
2017-Jan-18 10:33N 01°13' E 103°48'0 0.1
2017-Jan-18 09:33N 01°13' E 103°48'0 0.1
2017-Jan-18 08:33N 01°13' E 103°48'0 0.0
2017-Jan-18 07:33N 01°13' E 103°48'2 2.0
2017-Jan-18 06:33N 01°12' E 103°50'9 9.2
2017-Jan-18 05:33N 01°16' E 103°58'7 3.3
2017-Jan-18 03:30N 01°17' E 104°05'  
2017-Jan-13 09:25N 01°14' E 103°59'1012.1
2017-Jan-13 08:33N 01°12' E 103°49'1 0.3
2017-Jan-13 04:21N 01°13' E 103°49'0 0.1
2017-Jan-13 01:05N 01°13' E 103°48'0 0.0
2017-Jan-12 23:29N 01°13' E 103°48'0 0.0
2017-Jan-12 22:32N 01°13' E 103°48'0 0.0
2017-Jan-12 21:29N 01°13' E 103°48'0 0.0
2017-Jan-12 20:32N 01°13' E 103°48'0 0.0
2017-Jan-12 19:29N 01°13' E 103°48'0 0.0
2017-Jan-12 18:29N 01°13' E 103°48'0 0.0
2017-Jan-12 17:23N 01°13' E 103°48'0 0.1
2017-Jan-12 16:14N 01°13' E 103°48'0 0.0
2017-Jan-12 15:29N 01°13' E 103°48'0 0.1
2017-Jan-12 14:32N 01°13' E 103°48'0 0.1
2017-Jan-12 13:23N 01°13' E 103°48'0 0.1
2017-Jan-12 12:08N 01°13' E 103°49'0 0.0
2017-Jan-12 11:23N 01°13' E 103°49'0 0.0
2017-Jan-12 10:33N 01°13' E 103°49'  
Track history (hours):
 
Tides and Currents Weather Stations Pressure Air Temp Water Temp Dewpoint Dewpoint Depression Visibility Wind Speed Wind Dir Waves Ship Positions

Favola

Last reported at 2017-Jan-18 23:28 UTC. Time now 2017-Jan-19 00:20 UTC.
Position N 01°13' E 103°48'.

Length 180 m; draft 7.3 m.

Type: Ship (hazmat cat A). MMSI: 247069800.

Date/timePositionNaut miles runAvg speedWind from/ knotsBaromVisibWave heightAir tempDewpointWater temp
2017-Jan-18 23:28N 01°13' E 103°48'0 0.0
2017-Jan-18 21:28N 01°13' E 103°48'0 0.0
2017-Jan-18 19:33N 01°13' E 103°48'0 0.1
2017-Jan-18 18:33N 01°13' E 103°48'0 0.0
2017-Jan-18 17:33N 01°13' E 103°48'0 0.0
2017-Jan-18 16:24N 01°13' E 103°48'0 0.0
2017-Jan-18 15:33N 01°13' E 103°48'0 0.1
2017-Jan-18 14:33N 01°13' E 103°48'0 0.0
2017-Jan-18 13:21N 01°13' E 103°48'0 0.0
2017-Jan-18 12:33N 01°13' E 103°48'0 0.0
2017-Jan-18 11:15N 01°13' E 103°48'0 0.1
2017-Jan-18 10:33N 01°13' E 103°48'0 0.1
2017-Jan-18 09:33N 01°13' E 103°48'0 0.1
2017-Jan-18 08:33N 01°13' E 103°48'0 0.0
2017-Jan-18 07:33N 01°13' E 103°48'2 2.0
2017-Jan-18 06:33N 01°12' E 103°50'9 9.2
2017-Jan-18 05:33N 01°16' E 103°58'7 3.3
2017-Jan-18 03:30N 01°17' E 104°05'  
2017-Jan-13 09:25N 01°14' E 103°59'1012.1
2017-Jan-13 08:33N 01°12' E 103°49'1 0.3
2017-Jan-13 04:21N 01°13' E 103°49'0 0.1
2017-Jan-13 01:05N 01°13' E 103°48'0 0.0
2017-Jan-12 23:29N 01°13' E 103°48'0 0.0
2017-Jan-12 22:32N 01°13' E 103°48'0 0.0
2017-Jan-12 21:29N 01°13' E 103°48'0 0.0
2017-Jan-12 20:32N 01°13' E 103°48'0 0.0
2017-Jan-12 19:29N 01°13' E 103°48'0 0.0
2017-Jan-12 18:29N 01°13' E 103°48'0 0.0
2017-Jan-12 17:23N 01°13' E 103°48'0 0.1
2017-Jan-12 16:14N 01°13' E 103°48'0 0.0
2017-Jan-12 15:29N 01°13' E 103°48'0 0.1
2017-Jan-12 14:32N 01°13' E 103°48'0 0.1
2017-Jan-12 13:23N 01°13' E 103°48'0 0.1
2017-Jan-12 12:08N 01°13' E 103°49'0 0.0
2017-Jan-12 11:23N 01°13' E 103°49'0 0.0
2017-Jan-12 10:33N 01°13' E 103°49'  

Dump ship's entire track history